Time;durP1;ratioP1;P1;durP2;ratioP2;P2;SDS_P1;SDS_P2;PMS_P1;PMS_P2;Temp;Humidity;BMP_temperature;BMP_pressure;BME280_temperature;BME280_humidity;BME280_pressure;Samples;Min_cycle;Max_cycle;Signal;HPM_P1;HPM_P2
2021/03/31 00:01:30;;;;;;;10.07;3.60;;;;;;;;;;5130908;27;20102;-54
2021/03/31 00:03:55;;;;;;;13.63;3.70;;;;;;;;;;5131033;27;20122;-52
2021/03/31 00:06:21;;;;;;;8.73;3.55;;;;;;;;;;5132260;27;20023;-51
2021/03/31 00:08:47;;;;;;;5.80;3.58;;;;;;;;;;5131325;27;20046;-51
2021/03/31 00:11:12;;;;;;;10.82;3.83;;;;;;;;;;5131181;27;20511;-54
2021/03/31 00:13:38;;;;;;;4.95;3.50;;;;;;;;;;5133592;27;20043;-53
2021/03/31 00:16:05;;;;;;;9.77;3.97;;;;;;;;;;5131624;27;20030;-55
2021/03/31 00:18:30;;;;;;;7.15;3.75;;;;;;;;;;5133208;27;20034;-52
2021/03/31 00:20:56;;;;;;;8.80;3.63;;;;;;;;;;5133002;27;20043;-53
2021/03/31 00:23:24;;;;;;;10.50;3.72;;;;;;;;;;5132025;27;20026;-55
2021/03/31 00:25:50;;;;;;;8.05;4.18;;;;;;;;;;5130040;27;20047;-52
2021/03/31 00:28:16;;;;;;;14.32;3.60;;;;;;;;;;5130483;27;20127;-55
2021/03/31 00:30:42;;;;;;;7.13;3.40;;;;;;;;;;5112621;27;20065;-53
2021/03/31 00:33:08;;;;;;;7.38;3.60;;;;;;;;;;5131422;27;20059;-51
2021/03/31 00:35:34;;;;;;;7.60;3.78;;;;;;;;;;5133070;27;20462;-53
2021/03/31 00:37:59;;;;;;;9.00;3.97;;;;;;;;;;5131258;27;20442;-53
2021/03/31 00:40:36;;;;;;;7.72;3.80;;;;;;;;;;5131024;27;20023;-49
2021/03/31 00:43:02;;;;;;;9.05;3.50;;;;;;;;;;5132563;27;20527;-52
2021/03/31 00:45:27;;;;;;;13.68;3.28;;;;;;;;;;5131436;27;20062;-51
2021/03/31 00:47:52;;;;;;;8.35;3.70;;;;;;;;;;5130820;27;20038;-53
2021/03/31 00:50:19;;;;;;;11.82;4.65;;;;;;;;;;5131382;27;20106;-51
2021/03/31 00:52:47;;;;;;;9.35;4.03;;;;;;;;;;5132202;27;20022;-53
2021/03/31 00:55:14;;;;;;;11.02;3.53;;;;;;;;;;5130463;27;20042;-53
2021/03/31 00:57:40;;;;;;;11.32;3.85;;;;;;;;;;5130658;27;20035;-51
2021/03/31 01:00:07;;;;;;;11.45;3.70;;;;;;;;;;5130882;27;20037;-51
2021/03/31 01:02:33;;;;;;;7.10;3.63;;;;;;;;;;5130682;27;20039;-54
2021/03/31 01:04:58;;;;;;;6.68;3.60;;;;;;;;;;5130824;27;20035;-52
2021/03/31 01:07:24;;;;;;;8.73;4.57;;;;;;;;;;5133909;27;20027;-54
2021/03/31 01:09:53;;;;;;;7.28;3.60;;;;;;;;;;5131436;27;20031;-52
2021/03/31 01:12:47;;;;;;;7.80;3.72;;;;;;;;;;5130150;27;20039;-54
2021/03/31 01:15:27;;;;;;;9.93;3.53;;;;;;;;;;5130648;27;20031;-51
2021/03/31 01:17:57;;;;;;;8.65;3.85;;;;;;;;;;5130399;27;20054;-50
2021/03/31 01:20:25;;;;;;;8.63;3.95;;;;;;;;;;5131699;27;20368;-53
2021/03/31 01:23:19;;;;;;;10.98;4.03;;;;;;;;;;5131112;27;20042;-53
2021/03/31 01:25:57;;;;;;;9.55;4.05;;;;;;;;;;5130419;27;20039;-51
2021/03/31 01:28:43;;;;;;;10.02;4.22;;;;;;;;;;5134627;27;20031;-51
2021/03/31 01:31:25;;;;;;;6.80;3.72;;;;;;;;;;5132923;27;20039;-50
2021/03/31 01:33:50;;;;;;;;;;;;;;;;;;5134443;27;20067;-51
2021/03/31 01:36:17;;;;;;;8.60;4.20;;;;;;;;;;5134702;27;19951;-51
2021/03/31 01:38:51;;;;;;;9.75;3.92;;;;;;;;;;5133756;27;20065;-52
2021/03/31 01:41:19;;;;;;;7.50;4.13;;;;;;;;;;5134122;27;20047;-53
2021/03/31 01:43:49;;;;;;;10.55;4.25;;;;;;;;;;5133707;27;20136;-54
2021/03/31 01:46:17;;;;;;;6.30;3.65;;;;;;;;;;5135757;27;20467;-53
2021/03/31 01:48:43;;;;;;;8.93;4.40;;;;;;;;;;5135426;27;20122;-50
2021/03/31 01:51:10;;;;;;;8.50;4.57;;;;;;;;;;5134251;27;20215;-52
2021/03/31 01:53:37;;;;;;;11.35;4.82;;;;;;;;;;5133680;27;20673;-51
2021/03/31 01:56:03;;;;;;;10.85;4.40;;;;;;;;;;5134298;27;20464;-53
2021/03/31 01:58:31;;;;;;;10.10;4.97;;;;;;;;;;5133932;27;20027;-54
2021/03/31 02:00:57;;;;;;;6.35;4.40;;;;;;;;;;5135159;27;20042;-53
2021/03/31 02:03:25;;;;;;;8.60;4.90;;;;;;;;;;5134223;27;20042;-51
2021/03/31 02:05:50;;;;;;;11.55;4.78;;;;;;;;;;5135356;27;20130;-53
2021/03/31 02:08:18;;;;;;;10.95;4.85;;;;;;;;;;5134985;27;20122;-52
2021/03/31 02:10:44;;;;;;;8.55;4.45;;;;;;;;;;5133739;27;20031;-51
2021/03/31 02:13:12;;;;;;;8.07;5.22;;;;;;;;;;5134892;27;20031;-55
2021/03/31 02:15:39;;;;;;;9.68;4.57;;;;;;;;;;5133900;27;20131;-53
2021/03/31 02:18:07;;;;;;;10.60;4.93;;;;;;;;;;5134755;27;20031;-52
2021/03/31 02:20:34;;;;;;;10.23;5.03;;;;;;;;;;5133585;27;20041;-49
2021/03/31 02:23:01;;;;;;;12.07;4.65;;;;;;;;;;5133448;27;20120;-50
2021/03/31 02:25:26;;;;;;;7.60;4.22;;;;;;;;;;5133309;27;20030;-51
2021/03/31 02:27:52;;;;;;;6.70;4.38;;;;;;;;;;5132857;27;20099;-52
2021/03/31 02:30:20;;;;;;;8.52;4.85;;;;;;;;;;5134544;27;20031;-49
2021/03/31 02:32:47;;;;;;;12.43;5.25;;;;;;;;;;5115191;27;20134;-51
2021/03/31 02:35:15;;;;;;;11.48;4.72;;;;;;;;;;5132926;27;20034;-51
2021/03/31 02:37:43;;;;;;;6.93;4.78;;;;;;;;;;5134075;27;20041;-52
2021/03/31 02:40:10;;;;;;;7.10;4.60;;;;;;;;;;5136847;27;20621;-49
2021/03/31 02:42:37;;;;;;;9.80;5.20;;;;;;;;;;5132065;27;20524;-52
2021/03/31 02:45:04;;;;;;;10.88;4.93;;;;;;;;;;5134835;27;20037;-53
2021/03/31 02:47:30;;;;;;;8.77;4.75;;;;;;;;;;5131187;27;20027;-53
2021/03/31 02:50:03;;;;;;;6.32;4.40;;;;;;;;;;5134096;27;20137;-54
2021/03/31 02:52:31;;;;;;;7.75;4.93;;;;;;;;;;5131960;27;20470;-54
2021/03/31 02:54:57;;;;;;;7.05;4.50;;;;;;;;;;5132364;27;20530;-53
2021/03/31 02:57:23;;;;;;;7.72;4.68;;;;;;;;;;5132379;27;20483;-55
2021/03/31 02:59:50;;;;;;;6.55;4.75;;;;;;;;;;5132533;27;20066;-56
2021/03/31 03:02:19;;;;;;;6.05;3.92;;;;;;;;;;5132663;27;20080;-53
2021/03/31 03:04:50;;;;;;;8.07;5.20;;;;;;;;;;5134474;27;20030;-51
2021/03/31 03:07:16;;;;;;;11.07;4.78;;;;;;;;;;5132493;27;20039;-54
2021/03/31 03:09:43;;;;;;;8.20;5.50;;;;;;;;;;5132264;27;20046;-56
2021/03/31 03:12:14;;;;;;;9.77;4.53;;;;;;;;;;5132082;27;20050;-56
2021/03/31 03:14:49;;;;;;;7.18;4.57;;;;;;;;;;5132510;27;20035;-53
2021/03/31 03:17:15;;;;;;;7.18;4.90;;;;;;;;;;5132742;27;20059;-52
2021/03/31 03:19:41;;;;;;;10.77;5.30;;;;;;;;;;5134639;27;20025;-54
2021/03/31 03:22:07;;;;;;;10.07;4.95;;;;;;;;;;5135455;27;20023;-50
2021/03/31 03:24:34;;;;;;;7.43;5.03;;;;;;;;;;5131924;27;20026;-53
2021/03/31 03:27:01;;;;;;;13.85;5.30;;;;;;;;;;5132119;27;20035;-50
2021/03/31 03:29:26;;;;;;;8.25;5.05;;;;;;;;;;5133792;27;20422;-55
2021/03/31 03:31:53;;;;;;;11.25;5.60;;;;;;;;;;5132998;27;20041;-50
2021/03/31 03:34:19;;;;;;;9.18;5.65;;;;;;;;;;5132179;27;20023;-53
2021/03/31 03:36:45;;;;;;;7.53;5.03;;;;;;;;;;5131858;27;20345;-51
2021/03/31 03:39:11;;;;;;;10.15;5.03;;;;;;;;;;5135027;27;20027;-50
2021/03/31 03:41:36;;;;;;;9.13;4.93;;;;;;;;;;5132512;27;20095;-51
2021/03/31 03:44:03;;;;;;;12.98;5.47;;;;;;;;;;5131854;27;20118;-53
2021/03/31 03:46:32;;;;;;;9.05;5.15;;;;;;;;;;5132093;27;20027;-50
2021/03/31 03:48:59;;;;;;;13.27;5.75;;;;;;;;;;5132185;27;20192;-53
2021/03/31 03:51:25;;;;;;;10.68;5.68;;;;;;;;;;5133512;27;20051;-52
2021/03/31 03:53:54;;;;;;;14.30;5.97;;;;;;;;;;5131096;27;20077;-54
2021/03/31 03:56:21;;;;;;;13.57;5.50;;;;;;;;;;5134473;27;20044;-55
2021/03/31 03:58:46;;;;;;;9.18;5.10;;;;;;;;;;5131520;27;20106;-51
2021/03/31 04:01:12;;;;;;;8.27;4.75;;;;;;;;;;5113330;27;20523;-52
2021/03/31 04:03:37;;;;;;;10.38;5.68;;;;;;;;;;5132271;27;20034;-53
2021/03/31 04:06:03;;;;;;;16.50;6.13;;;;;;;;;;5133137;27;20032;-50
2021/03/31 04:08:29;;;;;;;9.27;5.85;;;;;;;;;;5131434;27;20189;-53
2021/03/31 04:10:57;;;;;;;10.23;5.38;;;;;;;;;;5131521;27;20050;-51
2021/03/31 04:13:23;;;;;;;14.07;11.57;;;;;;;;;;5131112;27;20111;-50
2021/03/31 04:15:53;;;;;;;11.63;7.75;;;;;;;;;;5114554;27;20026;-52
2021/03/31 04:18:21;;;;;;;16.73;9.15;;;;;;;;;;5131262;27;20038;-51
2021/03/31 04:20:49;;;;;;;10.63;7.18;;;;;;;;;;5132993;27;20028;-50
2021/03/31 04:23:15;;;;;;;13.80;7.07;;;;;;;;;;5114480;27;20027;-51
2021/03/31 04:25:40;;;;;;;10.63;5.97;;;;;;;;;;5133174;27;20196;-51
2021/03/31 04:28:09;;;;;;;12.20;6.38;;;;;;;;;;5131246;27;20035;-51
2021/03/31 04:30:36;;;;;;;11.75;5.88;;;;;;;;;;5131160;27;20026;-50
2021/03/31 04:33:01;;;;;;;19.13;6.28;;;;;;;;;;5130699;27;20069;-53
2021/03/31 04:35:27;;;;;;;16.88;5.82;;;;;;;;;;5134004;27;20055;-54
2021/03/31 04:38:12;;;;;;;8.43;4.80;;;;;;;;;;5132651;27;20761;-50
2021/03/31 04:40:54;;;;;;;9.88;6.10;;;;;;;;;;5132941;27;20023;-50
2021/03/31 04:43:21;;;;;;;10.65;5.47;;;;;;;;;;5131163;27;20364;-48
2021/03/31 04:45:47;;;;;;;13.18;5.70;;;;;;;;;;5132566;27;20579;-53
2021/03/31 04:48:13;;;;;;;7.63;5.38;;;;;;;;;;5135627;27;20046;-50
2021/03/31 04:50:40;;;;;;;11.75;5.70;;;;;;;;;;5131097;27;20455;-50
2021/03/31 04:53:06;;;;;;;12.75;6.00;;;;;;;;;;5131005;27;20035;-51
2021/03/31 04:55:31;;;;;;;12.00;5.88;;;;;;;;;;5131060;27;20113;-50
2021/03/31 04:57:57;;;;;;;13.60;6.10;;;;;;;;;;5131076;27;20039;-50
2021/03/31 05:00:22;;;;;;;11.10;6.45;;;;;;;;;;5111945;27;20031;-56
2021/03/31 05:02:48;;;;;;;12.52;6.40;;;;;;;;;;5130938;27;20056;-53
2021/03/31 05:05:14;;;;;;;12.63;6.28;;;;;;;;;;5131581;27;20092;-50
2021/03/31 05:07:39;;;;;;;10.80;5.85;;;;;;;;;;5138343;27;20484;-51
2021/03/31 05:10:05;;;;;;;12.18;5.65;;;;;;;;;;5137520;27;20062;-51
2021/03/31 05:12:31;;;;;;;10.45;5.82;;;;;;;;;;5138463;27;20035;-51
2021/03/31 05:14:56;;;;;;;14.00;5.93;;;;;;;;;;5135870;27;20039;-53
2021/03/31 05:17:23;;;;;;;9.50;5.82;;;;;;;;;;5140186;27;20031;-52
2021/03/31 05:19:48;;;;;;;14.15;5.72;;;;;;;;;;5137388;27;20108;-51
2021/03/31 05:22:14;;;;;;;11.50;5.90;;;;;;;;;;5138312;27;20035;-51
2021/03/31 05:24:40;;;;;;;12.30;5.88;;;;;;;;;;5136116;27;20027;-50
2021/03/31 05:27:05;;;;;;;12.13;5.65;;;;;;;;;;5134751;27;20039;-54
2021/03/31 05:29:31;;;;;;;14.07;6.35;;;;;;;;;;5134896;27;20035;-49
2021/03/31 05:31:56;;;;;;;25.00;6.65;;;;;;;;;;5136313;27;20035;-51
2021/03/31 05:34:22;;;;;;;12.40;6.30;;;;;;;;;;5136294;27;20126;-52
2021/03/31 05:36:47;;;;;;;12.43;6.38;;;;;;;;;;5134242;27;20050;-53
2021/03/31 05:39:12;;;;;;;13.38;5.97;;;;;;;;;;5136388;27;20034;-52
2021/03/31 05:41:38;;;;;;;8.88;5.40;;;;;;;;;;5134105;27;20035;-51
2021/03/31 05:44:04;;;;;;;12.38;6.32;;;;;;;;;;5133894;27;20050;-49
2021/03/31 05:46:31;;;;;;;11.10;6.22;;;;;;;;;;5134442;27;20092;-48
2021/03/31 05:48:58;;;;;;;15.57;6.80;;;;;;;;;;5134473;27;20151;-53
2021/03/31 05:51:23;;;;;;;11.60;6.47;;;;;;;;;;5121422;27;20031;-54
2021/03/31 05:53:48;;;;;;;13.70;6.18;;;;;;;;;;5136139;27;20027;-50
2021/03/31 05:56:14;;;;;;;10.15;5.53;;;;;;;;;;5134671;27;20023;-49
2021/03/31 05:58:40;;;;;;;14.85;6.10;;;;;;;;;;5135657;27;20051;-52
2021/03/31 06:01:05;;;;;;;13.55;6.18;;;;;;;;;;5137665;27;20030;-51
2021/03/31 06:03:32;;;;;;;12.77;6.43;;;;;;;;;;5136355;27;20426;-50
2021/03/31 06:05:59;;;;;;;19.80;6.88;;;;;;;;;;5133238;27;20058;-54
2021/03/31 06:08:24;;;;;;;13.68;6.60;;;;;;;;;;5133054;27;20053;-53
2021/03/31 06:11:01;;;;;;;9.63;6.00;;;;;;;;;;5133215;27;20039;-50
2021/03/31 06:13:55;;;;;;;13.05;6.15;;;;;;;;;;5133539;27;20440;-50
2021/03/31 06:16:28;;;;;;;13.55;6.53;;;;;;;;;;5123721;27;20035;-52
2021/03/31 06:18:54;;;;;;;10.15;6.22;;;;;;;;;;5134954;27;20524;-51
2021/03/31 06:21:20;;;;;;;18.58;6.57;;;;;;;;;;5137885;27;20134;-51
2021/03/31 06:24:10;;;;;;;10.48;6.05;;;;;;;;;;5133567;27;20028;-50
2021/03/31 06:26:39;;;;;;;16.58;6.22;;;;;;;;;;5134233;27;20035;-50
2021/03/31 06:29:10;;;;;;;12.02;6.10;;;;;;;;;;5134695;27;20027;-52
2021/03/31 06:31:47;;;;;;;27.50;9.20;;;;;;;;;;5133401;27;20027;-50
2021/03/31 06:34:15;;;;;;;16.40;6.80;;;;;;;;;;5133444;27;20035;-51
2021/03/31 06:36:49;;;;;;;15.27;7.10;;;;;;;;;;5135207;27;20027;-51
2021/03/31 06:39:23;;;;;;;21.60;7.15;;;;;;;;;;5134332;27;20095;-51
2021/03/31 06:41:56;;;;;;;19.13;7.18;;;;;;;;;;5134552;27;20054;-49
2021/03/31 06:49:36;;;;;;;13.93;7.07;;;;;;;;;;5136674;27;20022;-53
2021/03/31 06:52:10;;;;;;;10.38;6.53;;;;;;;;;;5134118;27;20114;-52
2021/03/31 06:54:47;;;;;;;11.50;7.00;;;;;;;;;;5135352;27;20030;-51
2021/03/31 06:57:15;;;;;;;11.52;6.30;;;;;;;;;;5136112;27;20456;-50
2021/03/31 06:59:42;;;;;;;11.45;6.30;;;;;;;;;;5137698;27;20028;-53
2021/03/31 07:02:08;;;;;;;9.50;6.10;;;;;;;;;;5138069;27;20041;-52
2021/03/31 07:04:34;;;;;;;10.27;6.50;;;;;;;;;;5135322;27;20019;-55
2021/03/31 07:07:07;;;;;;;17.90;6.18;;;;;;;;;;5133015;27;20122;-52
2021/03/31 07:09:32;;;;;;;20.58;6.95;;;;;;;;;;5134779;27;20118;-53
2021/03/31 07:11:57;;;;;;;8.88;6.25;;;;;;;;;;5137013;27;20113;-54
2021/03/31 07:14:24;;;;;;;13.07;6.40;;;;;;;;;;5134445;27;20453;-53
2021/03/31 07:16:50;;;;;;;11.00;6.57;;;;;;;;;;5134944;27;20034;-51
2021/03/31 07:19:17;;;;;;;10.75;6.55;;;;;;;;;;5136405;27;20057;-54
2021/03/31 07:21:43;;;;;;;10.57;6.30;;;;;;;;;;5133842;27;20467;-48
2021/03/31 07:24:13;;;;;;;10.70;6.80;;;;;;;;;;5135654;27;20440;-48
2021/03/31 07:26:40;;;;;;;11.27;7.13;;;;;;;;;;5132303;27;20035;-51
2021/03/31 07:29:06;;;;;;;15.75;7.45;;;;;;;;;;5133872;27;20460;-52
2021/03/31 07:31:32;;;;;;;11.30;6.78;;;;;;;;;;5132261;27;20031;-53
2021/03/31 07:34:24;;;;;;;13.60;7.82;;;;;;;;;;5132433;27;20802;-51
2021/03/31 07:36:50;;;;;;;15.18;7.30;;;;;;;;;;5131902;27;20031;-53
2021/03/31 07:39:21;;;;;;;21.20;7.38;;;;;;;;;;5132349;27;20405;-54
2021/03/31 07:41:48;;;;;;;15.00;8.15;;;;;;;;;;5132669;27;20035;-55
2021/03/31 07:44:22;;;;;;;13.07;6.85;;;;;;;;;;5131625;27;20031;-54
2021/03/31 07:46:49;;;;;;;8.38;6.22;;;;;;;;;;5134031;27;20038;-55
2021/03/31 07:49:16;;;;;;;13.88;6.35;;;;;;;;;;5133082;27;20117;-55
2021/03/31 07:52:02;;;;;;;14.18;6.55;;;;;;;;;;5134723;27;20039;-54
2021/03/31 07:54:29;;;;;;;20.02;7.68;;;;;;;;;;5136726;27;20408;-53
2021/03/31 07:56:57;;;;;;;17.88;6.28;;;;;;;;;;5133091;27;20098;-52
2021/03/31 07:59:23;;;;;;;11.95;7.07;;;;;;;;;;5129710;27;20038;-55
2021/03/31 08:01:51;;;;;;;12.38;6.25;;;;;;;;;;5134081;27;20031;-56
2021/03/31 08:04:21;;;;;;;11.25;6.90;;;;;;;;;;5132089;27;20031;-54
2021/03/31 08:06:51;;;;;;;8.63;5.75;;;;;;;;;;5115267;27;20080;-51
2021/03/31 08:09:19;;;;;;;16.00;6.78;;;;;;;;;;5132317;27;20042;-53
2021/03/31 08:11:48;;;;;;;14.77;7.45;;;;;;;;;;5131866;27;20062;-55
2021/03/31 08:14:35;;;;;;;11.13;6.85;;;;;;;;;;5131891;27;20087;-56
2021/03/31 08:17:03;;;;;;;10.50;6.18;;;;;;;;;;5138695;27;20111;-55
2021/03/31 08:19:32;;;;;;;9.07;6.43;;;;;;;;;;5135836;27;20552;-55
2021/03/31 08:22:19;;;;;;;9.27;6.05;;;;;;;;;;5131123;27;20114;-56
2021/03/31 08:24:51;;;;;;;8.85;6.50;;;;;;;;;;5130719;27;20054;-53
2021/03/31 08:27:16;;;;;;;8.82;5.85;;;;;;;;;;5132328;27;20065;-54
2021/03/31 08:29:42;;;;;;;9.32;6.07;;;;;;;;;;5135215;27;20035;-54
2021/03/31 08:32:09;;;;;;;14.40;6.82;;;;;;;;;;5131107;27;20041;-56
2021/03/31 08:34:36;;;;;;;11.43;6.55;;;;;;;;;;5131697;27;20051;-56
2021/03/31 08:37:18;;;;;;;12.68;6.70;;;;;;;;;;5131460;27;20041;-51
2021/03/31 08:39:43;;;;;;;18.77;7.13;;;;;;;;;;5131714;27;20321;-56
2021/03/31 08:42:08;;;;;;;13.35;7.65;;;;;;;;;;5136150;27;20031;-56
2021/03/31 08:44:36;;;;;;;11.95;7.43;;;;;;;;;;5103027;27;20030;-55
2021/03/31 08:47:31;;;;;;;12.90;8.30;;;;;;;;;;5135892;27;20042;-55
2021/03/31 08:50:04;;;;;;;14.02;9.57;;;;;;;;;;5135377;27;20050;-57
2021/03/31 08:52:34;;;;;;;13.80;8.13;;;;;;;;;;5134639;27;20024;-54
2021/03/31 08:55:02;;;;;;;13.70;7.90;;;;;;;;;;5135805;27;20396;-54
2021/03/31 08:57:29;;;;;;;15.05;9.15;;;;;;;;;;5135916;27;20339;-56
2021/03/31 09:00:00;;;;;;;12.85;8.75;;;;;;;;;;5135771;27;20057;-55
2021/03/31 09:02:31;;;;;;;16.50;9.18;;;;;;;;;;5136453;27;20118;-56
2021/03/31 09:04:58;;;;;;;16.17;9.73;;;;;;;;;;5136118;27;20039;-55
2021/03/31 09:07:24;;;;;;;16.27;11.27;;;;;;;;;;5135070;27;20106;-56
2021/03/31 09:09:50;;;;;;;19.45;12.68;;;;;;;;;;5133272;27;20023;-55
2021/03/31 09:12:25;;;;;;;19.05;11.70;;;;;;;;;;5136612;27;20380;-55
2021/03/31 09:14:53;;;;;;;17.40;11.98;;;;;;;;;;5134380;27;20035;-54
2021/03/31 09:17:20;;;;;;;19.52;12.48;;;;;;;;;;5138512;27;20031;-54
2021/03/31 09:19:47;;;;;;;19.70;12.85;;;;;;;;;;5117007;27;20027;-54
2021/03/31 09:22:16;;;;;;;19.33;13.40;;;;;;;;;;5134930;27;20038;-54
2021/03/31 09:24:47;;;;;;;17.35;13.35;;;;;;;;;;5137173;27;20110;-53
2021/03/31 09:27:15;;;;;;;21.00;14.25;;;;;;;;;;5136762;27;20023;-55
2021/03/31 09:29:43;;;;;;;18.60;13.68;;;;;;;;;;5134824;27;20106;-55
2021/03/31 09:32:13;;;;;;;22.90;13.57;;;;;;;;;;5135403;27;20043;-56
2021/03/31 09:34:39;;;;;;;20.00;13.57;;;;;;;;;;5138397;27;20041;-55
2021/03/31 09:37:12;;;;;;;23.48;13.23;;;;;;;;;;5138677;27;20110;-54
2021/03/31 09:39:57;;;;;;;22.90;13.23;;;;;;;;;;5134643;27;20292;-54
2021/03/31 09:42:27;;;;;;;20.10;13.57;;;;;;;;;;5135387;27;20031;-54
2021/03/31 09:44:53;;;;;;;20.80;14.30;;;;;;;;;;5137622;27;20027;-55
2021/03/31 09:47:22;;;;;;;28.02;22.58;;;;;;;;;;5135024;27;20050;-56
2021/03/31 09:49:52;;;;;;;21.35;15.55;;;;;;;;;;5136272;27;20031;-55
2021/03/31 09:52:24;;;;;;;28.25;16.27;;;;;;;;;;5134207;27;20043;-54
2021/03/31 09:54:50;;;;;;;31.52;15.20;;;;;;;;;;5133417;27;20100;-55
2021/03/31 09:57:16;;;;;;;30.67;15.43;;;;;;;;;;5134406;27;20030;-56
2021/03/31 09:59:42;;;;;;;28.02;15.57;;;;;;;;;;5133941;27;20027;-54
2021/03/31 10:02:13;;;;;;;25.10;15.02;;;;;;;;;;5135055;27;20031;-57
2021/03/31 10:04:40;;;;;;;25.88;15.15;;;;;;;;;;5124572;27;20035;-56
2021/03/31 10:07:16;;;;;;;22.90;14.80;;;;;;;;;;5133335;27;20031;-55
2021/03/31 10:09:46;;;;;;;22.25;15.02;;;;;;;;;;5135297;27;20035;-55
2021/03/31 10:12:19;;;;;;;22.20;16.40;;;;;;;;;;5134184;27;20035;-55
2021/03/31 10:14:48;;;;;;;22.58;16.08;;;;;;;;;;5134934;27;20026;-56
2021/03/31 10:17:16;;;;;;;20.00;15.50;;;;;;;;;;5134246;27;20083;-54
2021/03/31 10:19:41;;;;;;;25.95;15.60;;;;;;;;;;5137065;27;20419;-55
2021/03/31 10:22:08;;;;;;;26.58;15.77;;;;;;;;;;5134058;27;20031;-54
2021/03/31 10:24:39;;;;;;;27.38;15.20;;;;;;;;;;5134435;27;20448;-53
2021/03/31 10:27:07;;;;;;;30.40;15.90;;;;;;;;;;5133779;27;20114;-54
2021/03/31 10:29:33;;;;;;;20.10;14.98;;;;;;;;;;5135003;27;20034;-54
2021/03/31 10:32:00;;;;;;;20.98;14.18;;;;;;;;;;5135803;27;20137;-55
2021/03/31 10:34:37;;;;;;;21.48;14.52;;;;;;;;;;5134867;27;20031;-50
2021/03/31 10:53:48;;;;;;;21.85;16.52;;;;;;;;;;5132977;27;20159;-54
2021/03/31 10:56:13;;;;;;;23.63;14.35;;;;;;;;;;5133335;27;20115;-55
2021/03/31 10:58:42;;;;;;;19.95;15.32;;;;;;;;;;5133778;27;20092;-55
2021/03/31 11:01:08;;;;;;;23.92;15.85;;;;;;;;;;5136282;27;20113;-52
2021/03/31 11:03:34;;;;;;;20.98;15.85;;;;;;;;;;5134282;27;20026;-56
2021/03/31 11:05:59;;;;;;;19.88;15.63;;;;;;;;;;5136287;27;20027;-56
2021/03/31 11:08:25;;;;;;;21.13;15.00;;;;;;;;;;5135199;27;20468;-54
2021/03/31 11:10:50;;;;;;;20.85;15.55;;;;;;;;;;5134262;27;20035;-54
2021/03/31 11:13:16;;;;;;;26.20;14.00;;;;;;;;;;5137680;27;20027;-53
2021/03/31 11:15:42;;;;;;;21.58;15.57;;;;;;;;;;5131982;27;20117;-53
2021/03/31 11:21:07;;;;;;;25.05;15.70;;;;;;;;;;5132542;27;20106;-55
2021/03/31 11:26:17;;;;;;;28.63;18.58;;;;;;;;;;5134924;27;20031;-53
2021/03/31 11:28:42;;;;;;;27.50;15.73;;;;;;;;;;5134287;27;20104;-53
2021/03/31 11:31:09;;;;;;;23.90;16.38;;;;;;;;;;5134192;27;20038;-55
2021/03/31 11:33:34;;;;;;;24.95;16.63;;;;;;;;;;5136812;27;20015;-54
2021/03/31 11:36:00;;;;;;;25.20;17.27;;;;;;;;;;5133367;27;20045;-55
2021/03/31 11:38:25;;;;;;;28.88;19.70;;;;;;;;;;5135297;27;20034;-53
2021/03/31 11:40:51;;;;;;;23.80;18.25;;;;;;;;;;5139696;27;20049;-53
2021/03/31 11:43:17;;;;;;;25.02;17.33;;;;;;;;;;5140720;27;20535;-54
2021/03/31 11:45:43;;;;;;;36.15;18.42;;;;;;;;;;5132797;27;20030;-53
2021/03/31 11:48:09;;;;;;;29.70;19.23;;;;;;;;;;5137817;27;20091;-54
2021/03/31 11:50:34;;;;;;;31.27;19.50;;;;;;;;;;5137741;27;20050;-55
2021/03/31 11:53:00;;;;;;;29.70;19.80;;;;;;;;;;5136295;27;20019;-54
2021/03/31 11:55:26;;;;;;;25.95;17.15;;;;;;;;;;5136142;27;20066;-56
2021/03/31 11:57:51;;;;;;;37.38;19.08;;;;;;;;;;5134911;27;20410;-56
2021/03/31 12:00:18;;;;;;;27.45;17.75;;;;;;;;;;5139384;27;20364;-56
2021/03/31 12:02:44;;;;;;;28.08;17.45;;;;;;;;;;5137604;27;20023;-55
2021/03/31 12:05:11;;;;;;;25.92;16.83;;;;;;;;;;5136672;27;20117;-55
2021/03/31 12:07:37;;;;;;;27.70;18.35;;;;;;;;;;5131996;27;20062;-54
2021/03/31 12:10:07;;;;;;;24.55;16.08;;;;;;;;;;5134759;27;20034;-56
2021/03/31 12:12:34;;;;;;;24.15;15.93;;;;;;;;;;5137718;27;20065;-56
2021/03/31 12:15:00;;;;;;;27.85;16.90;;;;;;;;;;5134291;27;20034;-54
2021/03/31 12:17:26;;;;;;;25.08;16.00;;;;;;;;;;5136075;27;20031;-53
2021/03/31 12:19:51;;;;;;;28.70;15.75;;;;;;;;;;5134703;27;20107;-54
2021/03/31 12:22:17;;;;;;;24.02;16.33;;;;;;;;;;5134630;27;20073;-55
2021/03/31 12:24:43;;;;;;;22.45;17.27;;;;;;;;;;5131138;27;20453;-54
2021/03/31 12:27:09;;;;;;;25.73;17.55;;;;;;;;;;5135709;27;20031;-53
2021/03/31 12:29:35;;;;;;;24.75;17.45;;;;;;;;;;5131668;27;20371;-54
2021/03/31 12:32:01;;;;;;;25.30;16.83;;;;;;;;;;5134271;27;20035;-56
2021/03/31 12:34:32;;;;;;;37.33;17.20;;;;;;;;;;5136750;27;20053;-56
2021/03/31 12:36:58;;;;;;;25.33;17.75;;;;;;;;;;5132932;27;20380;-54
2021/03/31 12:39:23;;;;;;;26.38;16.48;;;;;;;;;;5133989;27;20035;-53
2021/03/31 12:41:49;;;;;;;25.92;16.85;;;;;;;;;;5129633;27;20035;-55
2021/03/31 12:44:15;;;;;;;28.42;17.15;;;;;;;;;;5131003;27;20038;-52
2021/03/31 12:46:41;;;;;;;23.88;17.58;;;;;;;;;;5130612;27;20048;-54
2021/03/31 12:49:06;;;;;;;24.73;16.70;;;;;;;;;;5131373;27;20031;-55
2021/03/31 12:51:34;;;;;;;27.98;19.88;;;;;;;;;;5113878;27;20038;-53
2021/03/31 12:56:34;;;;;;;29.38;17.80;;;;;;;;;;5134453;27;20027;-51
2021/03/31 12:59:00;;;;;;;28.33;18.00;;;;;;;;;;5132161;27;20053;-55
2021/03/31 13:01:27;;;;;;;24.58;16.42;;;;;;;;;;5129409;27;20035;-54
2021/03/31 13:03:52;;;;;;;24.08;16.65;;;;;;;;;;5133010;27;20031;-52
2021/03/31 13:06:19;;;;;;;21.48;13.65;;;;;;;;;;5131628;27;20030;-57
2021/03/31 13:08:47;;;;;;;18.05;15.13;;;;;;;;;;5130488;27;20046;-54
2021/03/31 13:11:12;;;;;;;21.63;14.45;;;;;;;;;;5132343;27;20054;-56
2021/03/31 13:14:03;;;;;;;19.05;15.05;;;;;;;;;;5130482;27;20027;-55
2021/03/31 13:22:01;;;;;;;20.65;13.82;;;;;;;;;;5131235;27;20035;-55
2021/03/31 13:27:06;;;;;;;24.27;13.35;;;;;;;;;;5115003;27;20464;-56
2021/03/31 13:35:14;;;;;;;17.92;10.18;;;;;;;;;;5095079;27;20043;-55
2021/03/31 13:37:44;;;;;;;20.27;11.80;;;;;;;;;;5134729;27;20084;-55
2021/03/31 13:40:10;;;;;;;;;;;;;;;;;;5135266;27;20031;-55
2021/03/31 13:42:37;;;;;;;16.08;10.80;;;;;;;;;;5135109;27;19913;-56
2021/03/31 13:45:05;;;;;;;16.17;9.98;;;;;;;;;;5135149;27;20035;-54
2021/03/31 13:47:35;;;;;;;14.10;10.50;;;;;;;;;;5134897;27;20458;-56
2021/03/31 13:50:02;;;;;;;16.60;12.38;;;;;;;;;;5134876;27;20064;-52
2021/03/31 13:52:34;;;;;;;18.00;10.50;;;;;;;;;;5135230;27;20027;-55
2021/03/31 13:55:02;;;;;;;18.27;9.60;;;;;;;;;;5134175;27;20046;-55
2021/03/31 13:57:32;;;;;;;19.25;10.73;;;;;;;;;;5135074;27;20054;-55
2021/03/31 13:59:57;;;;;;;16.90;10.90;;;;;;;;;;5134084;27;20035;-56
2021/03/31 14:02:23;;;;;;;14.90;9.15;;;;;;;;;;5136968;27;20031;-54
2021/03/31 14:04:48;;;;;;;12.85;9.18;;;;;;;;;;5114812;27;20031;-54
2021/03/31 14:07:14;;;;;;;16.98;10.05;;;;;;;;;;5114553;27;20031;-57
2021/03/31 14:09:40;;;;;;;16.48;10.98;;;;;;;;;;5134681;27;20031;-56
2021/03/31 14:12:07;;;;;;;15.13;11.32;;;;;;;;;;5135603;27;20422;-57
2021/03/31 14:14:34;;;;;;;21.17;11.35;;;;;;;;;;5134173;27;20071;-56
2021/03/31 14:19:27;;;;;;;13.07;8.55;;;;;;;;;;5134326;27;20019;-56
2021/03/31 14:21:53;;;;;;;13.93;9.63;;;;;;;;;;5135227;27;20034;-52
2021/03/31 14:24:18;;;;;;;14.68;10.38;;;;;;;;;;5135345;27;20868;-55
2021/03/31 14:26:43;;;;;;;16.08;11.55;;;;;;;;;;5133801;27;20027;-55
2021/03/31 14:29:09;;;;;;;15.50;9.60;;;;;;;;;;5133429;27;20031;-56
2021/03/31 14:31:35;;;;;;;14.25;9.48;;;;;;;;;;5134387;27;20094;-55
2021/03/31 14:34:03;;;;;;;13.55;8.57;;;;;;;;;;5135939;27;20027;-50
2021/03/31 14:36:29;;;;;;;17.98;8.25;;;;;;;;;;5134068;27;20039;-56
2021/03/31 14:38:54;;;;;;;13.93;9.20;;;;;;;;;;5133799;27;20042;-56
2021/03/31 14:41:21;;;;;;;19.15;10.65;;;;;;;;;;5134100;27;20027;-53
2021/03/31 14:43:46;;;;;;;19.88;9.63;;;;;;;;;;5134664;27;20410;-55
2021/03/31 14:46:12;;;;;;;18.08;10.55;;;;;;;;;;5134921;27;20027;-56
2021/03/31 14:48:38;;;;;;;20.17;10.10;;;;;;;;;;5133531;27;20035;-51
2021/03/31 14:51:04;;;;;;;14.55;9.90;;;;;;;;;;5134681;27;20027;-55
2021/03/31 15:01:41;;;;;;;13.88;10.30;;;;;;;;;;5135375;27;20035;-55
2021/03/31 15:04:06;;;;;;;16.35;9.80;;;;;;;;;;5135887;27;20099;-51
2021/03/31 15:06:32;;;;;;;14.88;8.75;;;;;;;;;;5135123;27;20031;-54
2021/03/31 15:08:57;;;;;;;20.48;10.18;;;;;;;;;;5137091;27;20049;-55
2021/03/31 15:11:23;;;;;;;14.85;9.10;;;;;;;;;;5132554;27;20030;-55
2021/03/31 15:13:48;;;;;;;16.48;10.80;;;;;;;;;;5136100;27;20058;-53
2021/03/31 15:16:14;;;;;;;16.48;8.85;;;;;;;;;;5135967;27;20360;-55
2021/03/31 15:18:40;;;;;;;11.60;6.72;;;;;;;;;;5132410;27;20659;-52
2021/03/31 15:21:09;;;;;;;9.23;5.95;;;;;;;;;;5134603;27;20034;-53
2021/03/31 15:23:44;;;;;;;12.07;6.03;;;;;;;;;;5133187;27;20019;-55
2021/03/31 15:26:10;;;;;;;10.10;5.68;;;;;;;;;;5135015;27;20035;-54
2021/03/31 15:28:36;;;;;;;10.05;5.47;;;;;;;;;;5133198;27;20542;-55